Wednesday, October 01, 2014
00:04 UTC
  |  Log In   |  Register Free
Airport Search:

Tyler Pounds Regional Airport
(KTYR)

FAA data valid effective September 18, 2014 - November 13, 2014 (unless otherwise noted).

 
 
 
 
 
 
 
 
 
 
 
 
 
 

Current Aviation Weather for Tyler Pounds Regional Airport (KTYR)

The most recent METAR observation for KTYR was updated at: 2319
METAR Summary (Translated METAR)
KTYR
302253Z 15008KT 10SM BKN120 31/19 A2979 RMK AO2 SLP078 T03110194
KJDD
302255Z AUTO 15005KT 10SM FEW100 31/19 A2979 RMK AO2
(23.8 nm NW from KTYR)
KJSO
302215Z AUTO 13005KT 10SM CLR 30/20 A2982 RMK AO2 T03040198
(30.6 nm SE from KTYR)
TAF Summary (Translated TAF)
KTYR
301721Z 3018/0118 16006KT P6SM SCT045 SCT100 SCT250 FM010000 14006KT P6SM FEW070 SCT250 FM011000 15005KT P6SM BKN015 TEMPO 0110/0114 5SM BR FM011400 17008KT P6SM OVC015 FM011500 18008KT P6SM BKN025 FM011700 18010KT P6SM SCT035
  Airport Weather Conditions for KTYR

 Current Weather at TYR
88° F
Mostly Cloudy
Southeast winds at 9.2 mph
TYR NOAA Radar

Pressure: 29.79 in
Humidity: 50%
Wind: Southeast at 9.2 MPH (8 KT)
Dew Point: 66.9°F
Visibility: 10.00 mi


Airport Weather Forecast for KTYR

Translated METAR and TAF for KTYR
Translated METAR for KTYR (2359 UTC 30 September 2014)
found at http://aviationweather.gov/adds/metars/
 
METAR text: KTYR 302353Z 15004KT 10SM FEW120 29/20 A2979 RMK AO2 SLP079 T02940200 10322 20294 56005
Conditions at: KTYR (TYLER , TX, US) observed 2353 UTC 30 September 2014
Temperature: 29.4°C (85°F)
Dewpoint: 20.0°C (68°F) [RH = 57%]
Pressure (altimeter): 29.79 inches Hg (1008.9 mb)
[Sea-level pressure: 1007.9 mb]
Winds: from the SSE (150 degrees) at 5 MPH (4 knots; 2.1 m/s)
Visibility: 10 or more miles (16+ km)
Ceiling: at least 12,000 feet AGL
Clouds: few clouds at 12000 feet AGL
Weather: no significant weather observed at this time
Translated TAF for KTYR
Forecast for: KTYR (TYLER , TX, US)
TAF Text: KTYR 302320Z 0100/0124 15008KT P6SM FEW090 BKN120
Forecast period: 0000 to 1000 UTC 01 October 2014
Forecast type: FROM: standard forecast or significant change
Winds: from the SSE (150 degrees) at 9 MPH (8 knots; 4.2 m/s)
Visibility: 6 or more miles (10+ km)
Ceiling: 12000 feet AGL
Clouds: few clouds at 9000 feet AGL
broken clouds at 12000 feet AGL
Weather: no significant weather forecast for this period
TAF Text: FM011000 15005KT P6SM BKN015
Forecast period: 1000 to 1400 UTC 01 October 2014
Forecast type: FROM: standard forecast or significant change
Winds: from the SSE (150 degrees) at 6 MPH (5 knots; 2.6 m/s)
Visibility: 6 or more miles (10+ km)
Ceiling: 1500 feet AGL
Clouds: broken clouds at 1500 feet AGL
Weather: no significant weather forecast for this period
TAF Text: TEMPO 0110/0114 5SM BR BKN007
Forecast period: 1000 to 1400 UTC 01 October 2014
Forecast type: TEMPORARY: The following changes expected for less than half the time period
Visibility: 5 miles (8 km)
Ceiling: 700 feet AGL
Clouds: broken clouds at 700 feet AGL
Weather: BR  (mist)
TAF Text: FM011400 17008KT P6SM OVC015
Forecast period: 1400 to 1500 UTC 01 October 2014
Forecast type: FROM: standard forecast or significant change
Winds: from the S (170 degrees) at 9 MPH (8 knots; 4.2 m/s)
Visibility: 6 or more miles (10+ km)
Ceiling: 1500 feet AGL
Clouds: overcast cloud deck at 1500 feet AGL
Weather: no significant weather forecast for this period
TAF Text: FM011500 18008KT P6SM BKN025
Forecast period: 1500 to 1700 UTC 01 October 2014
Forecast type: FROM: standard forecast or significant change
Winds: from the S (180 degrees) at 9 MPH (8 knots; 4.2 m/s)
Visibility: 6 or more miles (10+ km)
Ceiling: 2500 feet AGL
Clouds: broken clouds at 2500 feet AGL
Weather: no significant weather forecast for this period
TAF Text: FM011700 18010KT P6SM SCT040
Forecast period: 1700 UTC 01 October 2014 to 0000 UTC 02 October 2014
Forecast type: FROM: standard forecast or significant change
Winds: from the S (180 degrees) at 12 MPH (10 knots; 5.2 m/s)
Visibility: 6 or more miles (10+ km)
Clouds: scattered clouds at 4000 feet AGL
Weather: no significant weather forecast for this period

Find All Airport Services Find A Hotel Find A Rental Car Find A Golf Course Find A Restaurant $100 Hamburger



FBO's on the Field
FBO Company Facility Photos Services Transportation Aviation Fuel Prices: Prices include tax
Catering Weather Repair Courtesy Rental Type 100LL JetA JetA+ MOGAS 8087
 
Jet Center of Tyler

Currently rated 5 by 1 person
FS:Phillips66
Last Updated: Sep-30
Login to update fuel prices
SS:
Contact Jet Center of TylerMore FBO Information
 
Johnson Aviation, Inc

Currently rated 4.1 by 2 people
FS:Avfuel
Last Updated: Sep-05
Login to update fuel prices
SS:
Contact Johnson Aviation, IncMore FBO Information
 
Add another FBO Facility Photos Catering Weather Repair Courtesy Rental Type 100LL JetA JetA+ MOGAS 8087
Services Transportation Aviation Fuel Prices: Prices include tax


model-print
model-print
model-print
model-print